sensor_id;sensor_type;location;lat;lon;timestamp;P1;durP1;ratioP1;P2;durP2;ratioP2
5014;SDS011;2526;51.060;4.228;2023-04-24T00:00:28;3.33;;;3.00;;
5014;SDS011;2526;51.060;4.228;2023-04-24T00:02:53;3.70;;;2.38;;
5014;SDS011;2526;51.060;4.228;2023-04-24T00:05:22;6.47;;;5.25;;
5014;SDS011;2526;51.060;4.228;2023-04-24T00:07:48;5.00;;;3.08;;
5014;SDS011;2526;51.060;4.228;2023-04-24T00:10:13;4.80;;;4.25;;
5014;SDS011;2526;51.060;4.228;2023-04-24T00:12:39;2.33;;;1.85;;
5014;SDS011;2526;51.060;4.228;2023-04-24T00:15:04;3.75;;;2.72;;
5014;SDS011;2526;51.060;4.228;2023-04-24T00:17:30;11.35;;;4.65;;
5014;SDS011;2526;51.060;4.228;2023-04-24T00:19:56;3.85;;;2.67;;
5014;SDS011;2526;51.060;4.228;2023-04-24T00:22:27;3.22;;;2.92;;
5014;SDS011;2526;51.060;4.228;2023-04-24T00:24:53;3.67;;;3.25;;
5014;SDS011;2526;51.060;4.228;2023-04-24T00:27:18;6.00;;;3.60;;
5014;SDS011;2526;51.060;4.228;2023-04-24T00:29:44;5.65;;;3.67;;
5014;SDS011;2526;51.060;4.228;2023-04-24T00:32:09;4.05;;;3.47;;
5014;SDS011;2526;51.060;4.228;2023-04-24T00:34:35;6.32;;;5.07;;
5014;SDS011;2526;51.060;4.228;2023-04-24T00:37:00;5.10;;;3.75;;
5014;SDS011;2526;51.060;4.228;2023-04-24T00:39:26;2.30;;;2.05;;
5014;SDS011;2526;51.060;4.228;2023-04-24T00:41:51;4.05;;;2.63;;
5014;SDS011;2526;51.060;4.228;2023-04-24T00:44:17;3.03;;;1.77;;
5014;SDS011;2526;51.060;4.228;2023-04-24T00:46:43;3.97;;;2.60;;
5014;SDS011;2526;51.060;4.228;2023-04-24T00:49:08;3.85;;;3.17;;
5014;SDS011;2526;51.060;4.228;2023-04-24T00:51:34;4.13;;;3.35;;
5014;SDS011;2526;51.060;4.228;2023-04-24T00:54:00;3.72;;;3.33;;
5014;SDS011;2526;51.060;4.228;2023-04-24T00:56:26;5.38;;;4.88;;
5014;SDS011;2526;51.060;4.228;2023-04-24T00:58:52;3.97;;;2.38;;
5014;SDS011;2526;51.060;4.228;2023-04-24T01:01:20;2.10;;;1.15;;
5014;SDS011;2526;51.060;4.228;2023-04-24T01:03:46;4.20;;;3.83;;
5014;SDS011;2526;51.060;4.228;2023-04-24T01:06:12;3.35;;;2.60;;
5014;SDS011;2526;51.060;4.228;2023-04-24T01:08:38;5.45;;;2.85;;
5014;SDS011;2526;51.060;4.228;2023-04-24T01:11:04;4.40;;;3.45;;
5014;SDS011;2526;51.060;4.228;2023-04-24T01:13:30;5.80;;;3.47;;
5014;SDS011;2526;51.060;4.228;2023-04-24T01:15:56;5.40;;;1.98;;
5014;SDS011;2526;51.060;4.228;2023-04-24T01:18:22;4.32;;;2.97;;
5014;SDS011;2526;51.060;4.228;2023-04-24T01:20:47;4.55;;;3.42;;
5014;SDS011;2526;51.060;4.228;2023-04-24T01:23:14;7.05;;;3.28;;
5014;SDS011;2526;51.060;4.228;2023-04-24T01:25:40;4.55;;;2.60;;
5014;SDS011;2526;51.060;4.228;2023-04-24T01:28:06;5.05;;;4.38;;
5014;SDS011;2526;51.060;4.228;2023-04-24T01:30:33;2.60;;;2.03;;
5014;SDS011;2526;51.060;4.228;2023-04-24T01:32:58;4.25;;;3.85;;
5014;SDS011;2526;51.060;4.228;2023-04-24T01:35:24;4.35;;;3.65;;
5014;SDS011;2526;51.060;4.228;2023-04-24T01:37:50;3.42;;;2.47;;
5014;SDS011;2526;51.060;4.228;2023-04-24T01:40:15;4.47;;;4.07;;
5014;SDS011;2526;51.060;4.228;2023-04-24T01:42:41;8.02;;;3.17;;
5014;SDS011;2526;51.060;4.228;2023-04-24T01:45:06;2.33;;;2.10;;
5014;SDS011;2526;51.060;4.228;2023-04-24T01:47:33;2.58;;;2.38;;
5014;SDS011;2526;51.060;4.228;2023-04-24T01:49:59;2.53;;;2.15;;
5014;SDS011;2526;51.060;4.228;2023-04-24T01:52:24;5.28;;;1.88;;
5014;SDS011;2526;51.060;4.228;2023-04-24T01:54:50;2.53;;;2.15;;
5014;SDS011;2526;51.060;4.228;2023-04-24T01:57:15;2.92;;;2.13;;
5014;SDS011;2526;51.060;4.228;2023-04-24T01:59:41;1.52;;;1.42;;
5014;SDS011;2526;51.060;4.228;2023-04-24T02:02:06;1.38;;;1.17;;
5014;SDS011;2526;51.060;4.228;2023-04-24T02:04:32;1.73;;;1.52;;
5014;SDS011;2526;51.060;4.228;2023-04-24T02:06:57;3.85;;;1.65;;
5014;SDS011;2526;51.060;4.228;2023-04-24T02:09:23;2.53;;;2.30;;
5014;SDS011;2526;51.060;4.228;2023-04-24T02:11:48;1.52;;;1.42;;
5014;SDS011;2526;51.060;4.228;2023-04-24T02:14:14;2.45;;;2.10;;
5014;SDS011;2526;51.060;4.228;2023-04-24T02:16:39;4.00;;;2.20;;
5014;SDS011;2526;51.060;4.228;2023-04-24T02:19:05;4.22;;;1.48;;
5014;SDS011;2526;51.060;4.228;2023-04-24T02:21:30;3.33;;;1.98;;
5014;SDS011;2526;51.060;4.228;2023-04-24T02:23:57;1.83;;;1.65;;
5014;SDS011;2526;51.060;4.228;2023-04-24T02:26:22;2.13;;;1.10;;
5014;SDS011;2526;51.060;4.228;2023-04-24T02:28:48;2.00;;;1.85;;
5014;SDS011;2526;51.060;4.228;2023-04-24T02:31:13;1.70;;;1.60;;
5014;SDS011;2526;51.060;4.228;2023-04-24T02:33:39;1.55;;;1.45;;
5014;SDS011;2526;51.060;4.228;2023-04-24T02:36:05;3.20;;;2.95;;
5014;SDS011;2526;51.060;4.228;2023-04-24T02:38:30;1.95;;;1.73;;
5014;SDS011;2526;51.060;4.228;2023-04-24T02:40:56;3.15;;;1.63;;
5014;SDS011;2526;51.060;4.228;2023-04-24T02:43:21;2.17;;;1.85;;
5014;SDS011;2526;51.060;4.228;2023-04-24T02:45:46;1.65;;;1.35;;
5014;SDS011;2526;51.060;4.228;2023-04-24T02:48:12;1.33;;;1.23;;
5014;SDS011;2526;51.060;4.228;2023-04-24T02:50:37;3.53;;;2.53;;
5014;SDS011;2526;51.060;4.228;2023-04-24T02:53:03;5.72;;;1.98;;
5014;SDS011;2526;51.060;4.228;2023-04-24T02:55:29;3.33;;;3.03;;
5014;SDS011;2526;51.060;4.228;2023-04-24T02:57:54;2.45;;;2.10;;
5014;SDS011;2526;51.060;4.228;2023-04-24T03:00:20;4.30;;;2.67;;
5014;SDS011;2526;51.060;4.228;2023-04-24T03:02:45;1.90;;;1.80;;
5014;SDS011;2526;51.060;4.228;2023-04-24T03:05:11;3.45;;;2.38;;
5014;SDS011;2526;51.060;4.228;2023-04-24T03:07:37;2.70;;;2.45;;
5014;SDS011;2526;51.060;4.228;2023-04-24T03:10:03;2.83;;;2.55;;
5014;SDS011;2526;51.060;4.228;2023-04-24T03:12:30;11.05;;;2.80;;
5014;SDS011;2526;51.060;4.228;2023-04-24T03:14:55;3.70;;;2.90;;
5014;SDS011;2526;51.060;4.228;2023-04-24T03:17:21;3.80;;;3.28;;
5014;SDS011;2526;51.060;4.228;2023-04-24T03:19:46;2.97;;;2.75;;
5014;SDS011;2526;51.060;4.228;2023-04-24T03:22:12;1.98;;;1.30;;
5014;SDS011;2526;51.060;4.228;2023-04-24T03:24:37;2.42;;;2.22;;
5014;SDS011;2526;51.060;4.228;2023-04-24T03:27:03;2.53;;;2.17;;
5014;SDS011;2526;51.060;4.228;2023-04-24T03:29:28;1.60;;;1.50;;
5014;SDS011;2526;51.060;4.228;2023-04-24T03:31:54;2.05;;;1.85;;
5014;SDS011;2526;51.060;4.228;2023-04-24T03:34:19;5.10;;;1.75;;
5014;SDS011;2526;51.060;4.228;2023-04-24T03:36:44;2.80;;;2.55;;
5014;SDS011;2526;51.060;4.228;2023-04-24T03:39:12;3.47;;;3.17;;
5014;SDS011;2526;51.060;4.228;2023-04-24T03:41:38;2.85;;;2.53;;
5014;SDS011;2526;51.060;4.228;2023-04-24T03:44:03;2.42;;;2.22;;
5014;SDS011;2526;51.060;4.228;2023-04-24T03:46:29;2.35;;;2.10;;
5014;SDS011;2526;51.060;4.228;2023-04-24T03:48:54;2.58;;;1.90;;
5014;SDS011;2526;51.060;4.228;2023-04-24T03:51:20;3.72;;;1.90;;
5014;SDS011;2526;51.060;4.228;2023-04-24T03:53:46;3.97;;;2.78;;
5014;SDS011;2526;51.060;4.228;2023-04-24T03:56:11;2.92;;;2.58;;
5014;SDS011;2526;51.060;4.228;2023-04-24T03:58:37;2.78;;;2.58;;
5014;SDS011;2526;51.060;4.228;2023-04-24T04:01:02;4.00;;;2.40;;
5014;SDS011;2526;51.060;4.228;2023-04-24T04:03:28;4.38;;;3.17;;
5014;SDS011;2526;51.060;4.228;2023-04-24T04:05:53;2.88;;;2.17;;
5014;SDS011;2526;51.060;4.228;2023-04-24T04:08:19;6.90;;;3.47;;
5014;SDS011;2526;51.060;4.228;2023-04-24T04:10:45;4.82;;;2.90;;
5014;SDS011;2526;51.060;4.228;2023-04-24T04:13:10;3.42;;;3.13;;
5014;SDS011;2526;51.060;4.228;2023-04-24T04:15:36;3.13;;;2.00;;
5014;SDS011;2526;51.060;4.228;2023-04-24T04:18:01;1.90;;;1.58;;
5014;SDS011;2526;51.060;4.228;2023-04-24T04:20:27;5.63;;;3.83;;
5014;SDS011;2526;51.060;4.228;2023-04-24T04:22:52;6.55;;;4.65;;
5014;SDS011;2526;51.060;4.228;2023-04-24T04:25:18;2.97;;;2.58;;
5014;SDS011;2526;51.060;4.228;2023-04-24T04:27:45;11.77;;;8.77;;
5014;SDS011;2526;51.060;4.228;2023-04-24T04:30:11;8.77;;;5.07;;
5014;SDS011;2526;51.060;4.228;2023-04-24T04:32:36;12.45;;;5.78;;
5014;SDS011;2526;51.060;4.228;2023-04-24T04:35:02;7.22;;;5.15;;
5014;SDS011;2526;51.060;4.228;2023-04-24T04:37:37;5.88;;;4.47;;
5014;SDS011;2526;51.060;4.228;2023-04-24T04:40:03;4.40;;;3.85;;
5014;SDS011;2526;51.060;4.228;2023-04-24T04:42:32;5.10;;;4.60;;
5014;SDS011;2526;51.060;4.228;2023-04-24T04:44:57;7.80;;;6.53;;
5014;SDS011;2526;51.060;4.228;2023-04-24T04:47:23;7.28;;;6.25;;
5014;SDS011;2526;51.060;4.228;2023-04-24T04:49:49;7.07;;;5.05;;
5014;SDS011;2526;51.060;4.228;2023-04-24T04:52:16;9.07;;;5.07;;
5014;SDS011;2526;51.060;4.228;2023-04-24T04:54:42;3.65;;;3.15;;
5014;SDS011;2526;51.060;4.228;2023-04-24T04:57:07;2.60;;;2.15;;
5014;SDS011;2526;51.060;4.228;2023-04-24T04:59:33;2.53;;;2.28;;
5014;SDS011;2526;51.060;4.228;2023-04-24T05:01:58;5.18;;;2.42;;
5014;SDS011;2526;51.060;4.228;2023-04-24T05:04:24;3.38;;;3.08;;
5014;SDS011;2526;51.060;4.228;2023-04-24T05:06:50;6.50;;;3.83;;
5014;SDS011;2526;51.060;4.228;2023-04-24T05:09:16;1.58;;;1.48;;
5014;SDS011;2526;51.060;4.228;2023-04-24T05:11:41;9.63;;;4.20;;
5014;SDS011;2526;51.060;4.228;2023-04-24T05:14:07;8.00;;;4.35;;
5014;SDS011;2526;51.060;4.228;2023-04-24T05:16:32;5.00;;;3.53;;
5014;SDS011;2526;51.060;4.228;2023-04-24T05:18:58;3.97;;;3.60;;
5014;SDS011;2526;51.060;4.228;2023-04-24T05:21:23;3.30;;;2.67;;
5014;SDS011;2526;51.060;4.228;2023-04-24T05:23:49;4.70;;;3.97;;
5014;SDS011;2526;51.060;4.228;2023-04-24T05:26:14;8.23;;;3.22;;
5014;SDS011;2526;51.060;4.228;2023-04-24T05:28:40;3.58;;;2.60;;
5014;SDS011;2526;51.060;4.228;2023-04-24T05:31:06;4.90;;;3.40;;
5014;SDS011;2526;51.060;4.228;2023-04-24T05:33:31;10.70;;;4.28;;
5014;SDS011;2526;51.060;4.228;2023-04-24T05:35:57;1.65;;;1.55;;
5014;SDS011;2526;51.060;4.228;2023-04-24T05:38:22;3.03;;;2.08;;
5014;SDS011;2526;51.060;4.228;2023-04-24T05:40:48;7.13;;;3.35;;
5014;SDS011;2526;51.060;4.228;2023-04-24T05:43:13;5.13;;;4.20;;
5014;SDS011;2526;51.060;4.228;2023-04-24T05:45:39;1.88;;;1.50;;
5014;SDS011;2526;51.060;4.228;2023-04-24T05:48:04;5.05;;;1.98;;
5014;SDS011;2526;51.060;4.228;2023-04-24T05:50:30;3.42;;;2.00;;
5014;SDS011;2526;51.060;4.228;2023-04-24T05:52:56;5.28;;;3.67;;
5014;SDS011;2526;51.060;4.228;2023-04-24T05:55:24;3.72;;;3.42;;
5014;SDS011;2526;51.060;4.228;2023-04-24T05:57:50;2.60;;;1.77;;
5014;SDS011;2526;51.060;4.228;2023-04-24T06:00:16;2.92;;;1.77;;
5014;SDS011;2526;51.060;4.228;2023-04-24T06:02:43;2.25;;;2.05;;
5014;SDS011;2526;51.060;4.228;2023-04-24T06:05:08;6.88;;;4.95;;
5014;SDS011;2526;51.060;4.228;2023-04-24T06:07:34;3.33;;;2.45;;
5014;SDS011;2526;51.060;4.228;2023-04-24T06:10:00;1.77;;;1.42;;
5014;SDS011;2526;51.060;4.228;2023-04-24T06:12:26;5.22;;;4.72;;
5014;SDS011;2526;51.060;4.228;2023-04-24T06:14:51;2.83;;;1.95;;
5014;SDS011;2526;51.060;4.228;2023-04-24T06:17:17;2.10;;;1.63;;
5014;SDS011;2526;51.060;4.228;2023-04-24T06:19:42;4.18;;;3.78;;
5014;SDS011;2526;51.060;4.228;2023-04-24T06:22:08;4.82;;;3.75;;
5014;SDS011;2526;51.060;4.228;2023-04-24T06:24:33;3.75;;;2.65;;
5014;SDS011;2526;51.060;4.228;2023-04-24T06:26:59;2.17;;;1.70;;
5014;SDS011;2526;51.060;4.228;2023-04-24T06:29:25;4.10;;;1.95;;
5014;SDS011;2526;51.060;4.228;2023-04-24T06:31:58;3.25;;;2.85;;
5014;SDS011;2526;51.060;4.228;2023-04-24T06:34:23;3.92;;;3.53;;
5014;SDS011;2526;51.060;4.228;2023-04-24T06:36:49;2.80;;;2.58;;
5014;SDS011;2526;51.060;4.228;2023-04-24T06:39:15;3.13;;;2.85;;
5014;SDS011;2526;51.060;4.228;2023-04-24T06:41:40;4.95;;;3.47;;
5014;SDS011;2526;51.060;4.228;2023-04-24T06:44:05;3.95;;;2.67;;
5014;SDS011;2526;51.060;4.228;2023-04-24T06:46:31;10.73;;;3.95;;
5014;SDS011;2526;51.060;4.228;2023-04-24T06:48:56;5.10;;;3.22;;
5014;SDS011;2526;51.060;4.228;2023-04-24T06:51:25;12.02;;;4.07;;
5014;SDS011;2526;51.060;4.228;2023-04-24T06:53:52;2.97;;;2.75;;
5014;SDS011;2526;51.060;4.228;2023-04-24T06:56:18;4.25;;;3.40;;
5014;SDS011;2526;51.060;4.228;2023-04-24T06:58:43;3.78;;;3.40;;
5014;SDS011;2526;51.060;4.228;2023-04-24T07:01:10;4.40;;;3.30;;
5014;SDS011;2526;51.060;4.228;2023-04-24T07:03:36;5.53;;;3.30;;
5014;SDS011;2526;51.060;4.228;2023-04-24T07:06:01;5.50;;;3.05;;
5014;SDS011;2526;51.060;4.228;2023-04-24T07:08:28;5.70;;;2.88;;
5014;SDS011;2526;51.060;4.228;2023-04-24T07:10:55;2.30;;;1.52;;
5014;SDS011;2526;51.060;4.228;2023-04-24T07:13:21;8.38;;;2.20;;
5014;SDS011;2526;51.060;4.228;2023-04-24T07:15:47;1.25;;;1.15;;
5014;SDS011;2526;51.060;4.228;2023-04-24T07:18:14;2.65;;;2.45;;
5014;SDS011;2526;51.060;4.228;2023-04-24T07:20:39;6.32;;;3.15;;
5014;SDS011;2526;51.060;4.228;2023-04-24T07:23:05;3.03;;;2.10;;
5014;SDS011;2526;51.060;4.228;2023-04-24T07:25:30;5.88;;;3.50;;
5014;SDS011;2526;51.060;4.228;2023-04-24T07:27:56;1.88;;;1.65;;
5014;SDS011;2526;51.060;4.228;2023-04-24T07:30:22;3.00;;;2.13;;
5014;SDS011;2526;51.060;4.228;2023-04-24T07:32:47;2.83;;;2.22;;
5014;SDS011;2526;51.060;4.228;2023-04-24T07:35:13;4.63;;;1.45;;
5014;SDS011;2526;51.060;4.228;2023-04-24T07:37:38;5.32;;;3.63;;
5014;SDS011;2526;51.060;4.228;2023-04-24T07:40:04;3.15;;;2.88;;
5014;SDS011;2526;51.060;4.228;2023-04-24T07:42:29;1.88;;;1.35;;
5014;SDS011;2526;51.060;4.228;2023-04-24T07:44:59;1.73;;;1.63;;
5014;SDS011;2526;51.060;4.228;2023-04-24T07:47:25;2.47;;;1.00;;
5014;SDS011;2526;51.060;4.228;2023-04-24T07:49:50;2.13;;;1.38;;
5014;SDS011;2526;51.060;4.228;2023-04-24T07:52:16;1.13;;;0.50;;
5014;SDS011;2526;51.060;4.228;2023-04-24T07:54:41;2.30;;;0.95;;
5014;SDS011;2526;51.060;4.228;2023-04-24T07:57:08;4.90;;;2.75;;
5014;SDS011;2526;51.060;4.228;2023-04-24T07:59:33;3.17;;;0.73;;
5014;SDS011;2526;51.060;4.228;2023-04-24T08:01:59;1.95;;;1.08;;
5014;SDS011;2526;51.060;4.228;2023-04-24T08:04:26;1.45;;;1.00;;
5014;SDS011;2526;51.060;4.228;2023-04-24T08:06:51;2.08;;;1.10;;
5014;SDS011;2526;51.060;4.228;2023-04-24T08:09:17;4.13;;;2.08;;
5014;SDS011;2526;51.060;4.228;2023-04-24T08:11:43;2.05;;;1.42;;
5014;SDS011;2526;51.060;4.228;2023-04-24T08:14:08;6.35;;;3.38;;
5014;SDS011;2526;51.060;4.228;2023-04-24T08:16:34;2.28;;;2.13;;
5014;SDS011;2526;51.060;4.228;2023-04-24T08:19:00;2.25;;;2.08;;
5014;SDS011;2526;51.060;4.228;2023-04-24T08:21:25;4.82;;;2.10;;
5014;SDS011;2526;51.060;4.228;2023-04-24T08:23:52;6.72;;;2.22;;
5014;SDS011;2526;51.060;4.228;2023-04-24T08:26:17;0.82;;;0.82;;
5014;SDS011;2526;51.060;4.228;2023-04-24T08:28:43;2.40;;;0.98;;
5014;SDS011;2526;51.060;4.228;2023-04-24T08:31:09;2.97;;;1.80;;
5014;SDS011;2526;51.060;4.228;2023-04-24T08:33:34;1.45;;;1.35;;
5014;SDS011;2526;51.060;4.228;2023-04-24T08:36:03;1.92;;;1.10;;
5014;SDS011;2526;51.060;4.228;2023-04-24T08:38:29;0.73;;;0.73;;
5014;SDS011;2526;51.060;4.228;2023-04-24T08:40:56;2.05;;;1.45;;
5014;SDS011;2526;51.060;4.228;2023-04-24T08:43:21;1.45;;;1.10;;
5014;SDS011;2526;51.060;4.228;2023-04-24T08:45:47;0.95;;;0.57;;
5014;SDS011;2526;51.060;4.228;2023-04-24T08:48:12;6.85;;;2.63;;
5014;SDS011;2526;51.060;4.228;2023-04-24T08:50:38;3.10;;;1.02;;
5014;SDS011;2526;51.060;4.228;2023-04-24T08:53:06;2.88;;;0.90;;
5014;SDS011;2526;51.060;4.228;2023-04-24T08:55:32;4.18;;;1.75;;
5014;SDS011;2526;51.060;4.228;2023-04-24T08:57:59;2.00;;;1.88;;
5014;SDS011;2526;51.060;4.228;2023-04-24T09:00:24;2.20;;;1.65;;
5014;SDS011;2526;51.060;4.228;2023-04-24T09:02:51;3.00;;;1.35;;
5014;SDS011;2526;51.060;4.228;2023-04-24T09:05:17;1.50;;;1.15;;
5014;SDS011;2526;51.060;4.228;2023-04-24T09:07:44;1.00;;;0.93;;
5014;SDS011;2526;51.060;4.228;2023-04-24T09:10:10;2.28;;;1.05;;
5014;SDS011;2526;51.060;4.228;2023-04-24T09:12:36;1.35;;;1.17;;
5014;SDS011;2526;51.060;4.228;2023-04-24T09:15:02;0.90;;;0.68;;
5014;SDS011;2526;51.060;4.228;2023-04-24T09:17:29;2.40;;;2.05;;
5014;SDS011;2526;51.060;4.228;2023-04-24T09:19:55;2.25;;;2.05;;
5014;SDS011;2526;51.060;4.228;2023-04-24T09:22:20;1.30;;;0.80;;
5014;SDS011;2526;51.060;4.228;2023-04-24T09:24:46;4.20;;;1.73;;
5014;SDS011;2526;51.060;4.228;2023-04-24T09:27:12;2.20;;;2.03;;
5014;SDS011;2526;51.060;4.228;2023-04-24T09:29:38;2.08;;;1.05;;
5014;SDS011;2526;51.060;4.228;2023-04-24T09:32:22;3.33;;;1.20;;
5014;SDS011;2526;51.060;4.228;2023-04-24T09:34:48;1.05;;;0.68;;
5014;SDS011;2526;51.060;4.228;2023-04-24T09:37:29;3.13;;;0.88;;
5014;SDS011;2526;51.060;4.228;2023-04-24T09:42:37;1.90;;;1.05;;
5014;SDS011;2526;51.060;4.228;2023-04-24T09:45:02;1.45;;;1.27;;
5014;SDS011;2526;51.060;4.228;2023-04-24T09:47:35;1.05;;;0.90;;
5014;SDS011;2526;51.060;4.228;2023-04-24T09:50:01;7.43;;;0.65;;
5014;SDS011;2526;51.060;4.228;2023-04-24T09:52:33;2.20;;;2.00;;
5014;SDS011;2526;51.060;4.228;2023-04-24T09:54:59;1.48;;;1.33;;
5014;SDS011;2526;51.060;4.228;2023-04-24T09:57:24;7.47;;;2.92;;
5014;SDS011;2526;51.060;4.228;2023-04-24T09:59:50;5.85;;;1.25;;
5014;SDS011;2526;51.060;4.228;2023-04-24T10:02:19;2.67;;;1.98;;
5014;SDS011;2526;51.060;4.228;2023-04-24T10:04:53;0.65;;;0.47;;
5014;SDS011;2526;51.060;4.228;2023-04-24T10:07:20;1.00;;;0.90;;
5014;SDS011;2526;51.060;4.228;2023-04-24T10:09:46;1.95;;;1.30;;
5014;SDS011;2526;51.060;4.228;2023-04-24T10:12:11;4.03;;;1.33;;
5014;SDS011;2526;51.060;4.228;2023-04-24T10:14:37;0.82;;;0.65;;
5014;SDS011;2526;51.060;4.228;2023-04-24T10:17:03;2.22;;;1.13;;
5014;SDS011;2526;51.060;4.228;2023-04-24T10:19:29;2.17;;;1.65;;
5014;SDS011;2526;51.060;4.228;2023-04-24T10:21:55;2.17;;;1.35;;
5014;SDS011;2526;51.060;4.228;2023-04-24T10:24:21;1.02;;;0.82;;
5014;SDS011;2526;51.060;4.228;2023-04-24T10:26:47;1.42;;;0.95;;
5014;SDS011;2526;51.060;4.228;2023-04-24T10:29:16;1.48;;;1.20;;
5014;SDS011;2526;51.060;4.228;2023-04-24T10:31:42;2.25;;;0.80;;
5014;SDS011;2526;51.060;4.228;2023-04-24T10:34:10;1.42;;;0.88;;
5014;SDS011;2526;51.060;4.228;2023-04-24T10:36:38;2.65;;;1.23;;
5014;SDS011;2526;51.060;4.228;2023-04-24T10:39:06;5.85;;;1.23;;
5014;SDS011;2526;51.060;4.228;2023-04-24T10:41:33;1.98;;;1.73;;
5014;SDS011;2526;51.060;4.228;2023-04-24T10:44:06;1.67;;;1.05;;
5014;SDS011;2526;51.060;4.228;2023-04-24T10:46:32;3.90;;;3.60;;
5014;SDS011;2526;51.060;4.228;2023-04-24T10:48:57;3.30;;;1.55;;
5014;SDS011;2526;51.060;4.228;2023-04-24T10:51:23;3.28;;;1.05;;
5014;SDS011;2526;51.060;4.228;2023-04-24T10:53:50;6.97;;;1.10;;
5014;SDS011;2526;51.060;4.228;2023-04-24T10:56:15;0.95;;;0.90;;
5014;SDS011;2526;51.060;4.228;2023-04-24T10:58:42;2.33;;;1.25;;
5014;SDS011;2526;51.060;4.228;2023-04-24T11:01:27;2.88;;;1.75;;
5014;SDS011;2526;51.060;4.228;2023-04-24T11:03:57;2.60;;;1.35;;
5014;SDS011;2526;51.060;4.228;2023-04-24T11:06:35;4.30;;;0.70;;
5014;SDS011;2526;51.060;4.228;2023-04-24T11:09:02;0.90;;;0.80;;
5014;SDS011;2526;51.060;4.228;2023-04-24T11:11:29;3.08;;;1.15;;
5014;SDS011;2526;51.060;4.228;2023-04-24T11:16:23;1.67;;;1.27;;
5014;SDS011;2526;51.060;4.228;2023-04-24T11:18:51;3.22;;;1.95;;
5014;SDS011;2526;51.060;4.228;2023-04-24T11:21:19;2.88;;;2.50;;
5014;SDS011;2526;51.060;4.228;2023-04-24T11:23:45;5.18;;;2.10;;
5014;SDS011;2526;51.060;4.228;2023-04-24T11:26:12;2.33;;;1.85;;
5014;SDS011;2526;51.060;4.228;2023-04-24T11:28:44;4.10;;;2.67;;
5014;SDS011;2526;51.060;4.228;2023-04-24T11:36:19;2.97;;;1.33;;
5014;SDS011;2526;51.060;4.228;2023-04-24T11:38:44;1.63;;;1.00;;
5014;SDS011;2526;51.060;4.228;2023-04-24T11:41:10;3.00;;;1.13;;
5014;SDS011;2526;51.060;4.228;2023-04-24T11:43:36;1.23;;;0.93;;
5014;SDS011;2526;51.060;4.228;2023-04-24T11:46:02;1.40;;;0.90;;
5014;SDS011;2526;51.060;4.228;2023-04-24T11:48:27;1.15;;;0.73;;
5014;SDS011;2526;51.060;4.228;2023-04-24T11:50:53;0.93;;;0.70;;
5014;SDS011;2526;51.060;4.228;2023-04-24T11:53:19;4.90;;;2.00;;
5014;SDS011;2526;51.060;4.228;2023-04-24T11:55:45;1.65;;;1.05;;
5014;SDS011;2526;51.060;4.228;2023-04-24T11:58:11;1.90;;;1.33;;
5014;SDS011;2526;51.060;4.228;2023-04-24T12:00:36;2.25;;;2.00;;
5014;SDS011;2526;51.060;4.228;2023-04-24T12:03:06;4.00;;;0.80;;
5014;SDS011;2526;51.060;4.228;2023-04-24T12:05:32;4.22;;;2.80;;
5014;SDS011;2526;51.060;4.228;2023-04-24T12:07:57;5.15;;;1.85;;
5014;SDS011;2526;51.060;4.228;2023-04-24T12:10:24;0.63;;;0.63;;
5014;SDS011;2526;51.060;4.228;2023-04-24T12:12:50;3.00;;;0.98;;
5014;SDS011;2526;51.060;4.228;2023-04-24T12:15:17;0.77;;;0.70;;
5014;SDS011;2526;51.060;4.228;2023-04-24T12:17:42;1.25;;;1.08;;
5014;SDS011;2526;51.060;4.228;2023-04-24T12:20:08;1.42;;;0.75;;
5014;SDS011;2526;51.060;4.228;2023-04-24T12:22:48;1.45;;;0.80;;
5014;SDS011;2526;51.060;4.228;2023-04-24T12:25:18;2.00;;;1.20;;
5014;SDS011;2526;51.060;4.228;2023-04-24T12:27:44;0.30;;;0.30;;
5014;SDS011;2526;51.060;4.228;2023-04-24T12:30:11;6.07;;;1.20;;
5014;SDS011;2526;51.060;4.228;2023-04-24T12:32:40;0.60;;;0.57;;
5014;SDS011;2526;51.060;4.228;2023-04-24T12:35:06;1.50;;;1.08;;
5014;SDS011;2526;51.060;4.228;2023-04-24T12:37:32;1.45;;;0.73;;
5014;SDS011;2526;51.060;4.228;2023-04-24T12:42:28;2.03;;;0.93;;
5014;SDS011;2526;51.060;4.228;2023-04-24T12:45:00;3.50;;;1.30;;
5014;SDS011;2526;51.060;4.228;2023-04-24T12:47:27;1.38;;;0.52;;
5014;SDS011;2526;51.060;4.228;2023-04-24T12:49:52;2.75;;;0.77;;
5014;SDS011;2526;51.060;4.228;2023-04-24T12:52:18;0.32;;;0.30;;
5014;SDS011;2526;51.060;4.228;2023-04-24T12:54:45;0.38;;;0.30;;
5014;SDS011;2526;51.060;4.228;2023-04-24T12:57:10;0.80;;;0.80;;
5014;SDS011;2526;51.060;4.228;2023-04-24T12:59:36;0.45;;;0.45;;
5014;SDS011;2526;51.060;4.228;2023-04-24T13:02:01;1.17;;;0.90;;
5014;SDS011;2526;51.060;4.228;2023-04-24T13:04:27;3.40;;;1.10;;
5014;SDS011;2526;51.060;4.228;2023-04-24T13:06:53;4.22;;;0.82;;
5014;SDS011;2526;51.060;4.228;2023-04-24T13:09:18;1.40;;;0.70;;
5014;SDS011;2526;51.060;4.228;2023-04-24T13:11:43;1.55;;;0.52;;
5014;SDS011;2526;51.060;4.228;2023-04-24T13:14:09;0.88;;;0.52;;
5014;SDS011;2526;51.060;4.228;2023-04-24T13:16:34;0.50;;;0.38;;
5014;SDS011;2526;51.060;4.228;2023-04-24T13:19:00;0.57;;;0.55;;
5014;SDS011;2526;51.060;4.228;2023-04-24T13:21:25;0.73;;;0.73;;
5014;SDS011;2526;51.060;4.228;2023-04-24T13:23:51;0.95;;;0.63;;
5014;SDS011;2526;51.060;4.228;2023-04-24T13:26:17;2.80;;;0.88;;
5014;SDS011;2526;51.060;4.228;2023-04-24T13:28:42;0.85;;;0.75;;
5014;SDS011;2526;51.060;4.228;2023-04-24T13:31:08;0.80;;;0.73;;
5014;SDS011;2526;51.060;4.228;2023-04-24T13:33:33;1.83;;;1.13;;
5014;SDS011;2526;51.060;4.228;2023-04-24T13:35:58;3.58;;;1.35;;
5014;SDS011;2526;51.060;4.228;2023-04-24T13:38:25;2.15;;;0.90;;
5014;SDS011;2526;51.060;4.228;2023-04-24T13:40:50;6.63;;;1.50;;
5014;SDS011;2526;51.060;4.228;2023-04-24T13:43:16;1.95;;;1.20;;
5014;SDS011;2526;51.060;4.228;2023-04-24T13:45:41;1.48;;;1.02;;
5014;SDS011;2526;51.060;4.228;2023-04-24T13:48:07;2.20;;;1.63;;
5014;SDS011;2526;51.060;4.228;2023-04-24T13:50:34;6.65;;;2.45;;
5014;SDS011;2526;51.060;4.228;2023-04-24T13:52:59;1.25;;;0.80;;
5014;SDS011;2526;51.060;4.228;2023-04-24T13:55:26;1.17;;;0.95;;
5014;SDS011;2526;51.060;4.228;2023-04-24T13:57:51;2.85;;;0.85;;
5014;SDS011;2526;51.060;4.228;2023-04-24T14:00:20;1.90;;;0.88;;
5014;SDS011;2526;51.060;4.228;2023-04-24T14:02:46;5.40;;;0.75;;
5014;SDS011;2526;51.060;4.228;2023-04-24T14:05:12;1.48;;;0.55;;
5014;SDS011;2526;51.060;4.228;2023-04-24T14:07:39;0.52;;;0.32;;
5014;SDS011;2526;51.060;4.228;2023-04-24T14:10:04;0.77;;;0.45;;
5014;SDS011;2526;51.060;4.228;2023-04-24T14:12:30;1.95;;;0.50;;
5014;SDS011;2526;51.060;4.228;2023-04-24T14:14:56;0.85;;;0.80;;
5014;SDS011;2526;51.060;4.228;2023-04-24T14:17:21;1.52;;;0.50;;
5014;SDS011;2526;51.060;4.228;2023-04-24T14:19:47;2.17;;;0.35;;
5014;SDS011;2526;51.060;4.228;2023-04-24T14:22:12;1.35;;;0.70;;
5014;SDS011;2526;51.060;4.228;2023-04-24T14:24:38;0.90;;;0.80;;
5014;SDS011;2526;51.060;4.228;2023-04-24T14:27:03;0.88;;;0.52;;
5014;SDS011;2526;51.060;4.228;2023-04-24T14:29:29;0.43;;;0.43;;
5014;SDS011;2526;51.060;4.228;2023-04-24T14:31:54;0.93;;;0.80;;
5014;SDS011;2526;51.060;4.228;2023-04-24T14:34:20;0.10;;;0.10;;
5014;SDS011;2526;51.060;4.228;2023-04-24T14:36:45;1.38;;;0.55;;
5014;SDS011;2526;51.060;4.228;2023-04-24T14:39:10;0.60;;;0.45;;
5014;SDS011;2526;51.060;4.228;2023-04-24T14:41:36;2.15;;;0.70;;
5014;SDS011;2526;51.060;4.228;2023-04-24T14:44:04;0.45;;;0.45;;
5014;SDS011;2526;51.060;4.228;2023-04-24T14:46:30;1.98;;;0.52;;
5014;SDS011;2526;51.060;4.228;2023-04-24T14:48:56;0.85;;;0.38;;
5014;SDS011;2526;51.060;4.228;2023-04-24T14:51:21;0.98;;;0.60;;
5014;SDS011;2526;51.060;4.228;2023-04-24T14:53:47;0.10;;;0.10;;
5014;SDS011;2526;51.060;4.228;2023-04-24T14:56:13;0.90;;;0.57;;
5014;SDS011;2526;51.060;4.228;2023-04-24T14:58:38;1.27;;;0.52;;
5014;SDS011;2526;51.060;4.228;2023-04-24T15:01:04;1.58;;;0.57;;
5014;SDS011;2526;51.060;4.228;2023-04-24T15:03:29;1.67;;;0.43;;
5014;SDS011;2526;51.060;4.228;2023-04-24T15:05:55;0.70;;;0.65;;
5014;SDS011;2526;51.060;4.228;2023-04-24T15:08:21;1.23;;;0.50;;
5014;SDS011;2526;51.060;4.228;2023-04-24T15:10:47;0.45;;;0.45;;
5014;SDS011;2526;51.060;4.228;2023-04-24T15:13:12;0.88;;;0.35;;
5014;SDS011;2526;51.060;4.228;2023-04-24T15:15:38;0.30;;;0.30;;
5014;SDS011;2526;51.060;4.228;2023-04-24T15:18:04;0.50;;;0.50;;
5014;SDS011;2526;51.060;4.228;2023-04-24T15:20:30;0.47;;;0.30;;